Time;durP1;ratioP1;P1;durP2;ratioP2;P2;SDS_P1;SDS_P2;PMS_P1;PMS_P2;Temp;Humidity;BMP_temperature;BMP_pressure;BME280_temperature;BME280_humidity;BME280_pressure;Samples;Min_cycle;Max_cycle;Signal;HPM_P1;HPM_P2
2024/02/20 00:00:35;;;;;;;31.13;3.72;;;;;;;-146.27;90.74;43383.59;5069843;28;20527;-74
2024/02/20 00:03:00;;;;;;;30.85;3.58;;;;;;;-146.27;90.88;43407.47;5072503;28;20103;-73
2024/02/20 00:05:27;;;;;;;20.38;3.55;;;;;;;-146.27;91.17;43405.47;5071969;28;20171;-73
2024/02/20 00:07:55;;;;;;;32.42;5.63;;;;;;;-146.27;90.75;43395.53;5071846;28;20472;-74
2024/02/20 00:10:21;;;;;;;25.25;3.47;;;;;;;-146.27;90.42;43373.66;5071183;28;20369;-74
2024/02/20 00:12:47;;;;;;;26.83;3.63;;;;;;;-146.27;90.85;43387.56;5070803;28;20089;-73
2024/02/20 00:15:13;;;;;;;26.70;4.00;;;;;;;-146.27;90.88;43351.75;5070786;28;20066;-74
2024/02/20 00:17:39;;;;;;;35.70;4.03;;;;;;;-146.27;90.96;43369.66;5071252;28;20052;-73
2024/02/20 00:20:08;;;;;;;22.67;2.78;;;;;;;-146.27;90.99;43431.34;5060988;28;20136;-73
2024/02/20 00:22:34;;;;;;;27.20;3.80;;;;;;;-146.27;90.83;43351.75;5055941;28;20032;-73
2024/02/20 00:24:59;;;;;;;37.80;4.10;;;;;;;-146.27;90.95;43335.84;5066138;28;20059;-72
2024/02/20 00:27:25;;;;;;;35.22;4.72;;;;;;;-146.27;90.73;43347.78;5061871;28;20035;-74
2024/02/20 00:29:50;;;;;;;36.83;4.07;;;;;;;-146.27;90.63;43308.00;5071393;28;20481;-73
2024/02/20 00:32:17;;;;;;;24.52;2.90;;;;;;;-146.27;90.81;43373.66;5071930;28;20035;-74
2024/02/20 00:34:43;;;;;;;18.30;3.97;;;;;;;-146.27;90.92;43341.81;5071572;28;20020;-73
2024/02/20 00:37:09;;;;;;;27.50;4.07;;;;;;;-146.27;90.75;43311.97;5072024;28;20029;-74
2024/02/20 00:39:34;;;;;;;26.80;4.00;;;;;;;-146.27;91.02;43335.84;5070401;28;20109;-73
2024/02/20 00:42:01;;;;;;;35.47;5.05;;;;;;;-146.27;91.63;43306.00;5070765;28;20024;-74
2024/02/20 00:44:27;;;;;;;31.27;3.38;;;;;;;-146.27;90.83;43308.00;5068694;28;20033;-73
2024/02/20 00:46:52;;;;;;;34.05;4.47;;;;;;;-146.27;91.12;43319.94;5070448;28;20119;-73
2024/02/20 00:49:18;;;;;;;23.73;2.95;;;;;;;-146.27;91.43;43278.16;5070636;28;20103;-73
2024/02/20 00:51:44;;;;;;;16.80;2.85;;;;;;;-146.27;90.92;43244.34;5071108;28;20056;-73
2024/02/20 00:54:10;;;;;;;28.48;2.92;;;;;;;-146.27;90.45;43258.28;5069780;28;20035;-73
2024/02/20 00:56:35;;;;;;;18.88;3.10;;;;;;;-146.27;90.42;43264.25;5070867;28;20115;-73
2024/02/20 00:59:02;;;;;;;29.25;3.78;;;;;;;-146.27;90.34;43270.22;5070075;28;20029;-73
2024/02/20 01:01:28;;;;;;;27.95;3.45;;;;;;;-146.27;90.49;43268.22;5064531;28;20070;-72
2024/02/20 01:03:53;;;;;;;25.20;3.83;;;;;;;-146.27;90.45;43268.22;5070877;28;20033;-73
2024/02/20 01:06:19;;;;;;;24.30;4.00;;;;;;;-146.27;90.21;43252.31;5070743;28;20111;-73
2024/02/20 01:08:44;;;;;;;25.50;4.10;;;;;;;-146.27;90.13;43246.34;5070491;28;20153;-71
2024/02/20 01:11:10;;;;;;;18.67;2.72;;;;;;;-146.27;90.60;43278.16;5070595;28;20020;-72
2024/02/20 01:13:36;;;;;;;26.80;4.00;;;;;;;-146.27;90.51;43284.13;5066899;28;20077;-70
2024/02/20 01:16:01;;;;;;;34.63;4.40;;;;;;;-146.27;89.83;43276.19;5075666;28;20028;-73
2024/02/20 01:18:27;;;;;;;30.85;3.25;;;;;;;-146.27;89.99;43288.13;5071677;28;20480;-72
2024/02/20 01:20:52;;;;;;;19.98;4.00;;;;;;;-146.27;89.52;43292.09;5071156;28;20474;-73
2024/02/20 01:23:18;;;;;;;33.13;4.90;;;;;;;-146.27;90.21;43325.91;5070704;28;20028;-72
2024/02/20 01:25:44;;;;;;;28.38;5.47;;;;;;;-146.27;89.56;43260.25;5070564;28;20139;-72
2024/02/20 01:28:10;;;;;;;24.58;3.55;;;;;;;-146.27;89.08;43248.34;5068834;28;20500;-72
2024/02/20 01:30:36;;;;;;;29.60;3.53;;;;;;;-146.27;88.72;43264.25;5068140;28;20040;-72
2024/02/20 01:33:02;;;;;;;15.38;2.55;;;;;;;-146.27;88.60;43296.06;5069693;28;20024;-72
2024/02/20 01:35:28;;;;;;;16.00;2.47;;;;;;;-146.27;88.71;43262.25;5070706;28;20104;-72
2024/02/20 01:37:53;;;;;;;23.63;3.92;;;;;;;-146.27;88.52;43298.06;5068484;28;20865;-72
2024/02/20 01:40:21;;;;;;;22.67;3.05;;;;;;;-146.27;88.75;43317.94;5069838;28;20113;-72
2024/02/20 01:43:00;;;;;;;22.70;3.33;;;;;;;-146.27;89.13;43288.13;5079622;28;20032;-72
2024/02/20 01:45:27;;;;;;;24.50;3.13;;;;;;;-146.27;88.64;43284.13;5060130;28;20020;-72
2024/02/20 01:47:54;;;;;;;30.73;3.08;;;;;;;-146.27;89.53;43343.81;5063274;28;20051;-72
2024/02/20 01:50:19;;;;;;;21.80;2.88;;;;;;;-146.27;89.42;43300.06;5061348;28;20029;-72
2024/02/20 01:52:46;;;;;;;24.05;3.25;;;;;;;-146.27;89.16;43313.97;5076072;28;20027;-73
2024/02/20 01:55:12;;;;;;;24.42;3.78;;;;;;;-146.27;89.10;43319.94;5069981;28;20567;-72
2024/02/20 01:57:39;;;;;;;31.98;3.88;;;;;;;-146.27;89.04;43278.16;5070286;28;20037;-70
2024/02/20 02:00:06;;;;;;;27.55;3.88;;;;;;;-146.27;88.64;43337.84;5068303;28;20074;-72
2024/02/20 02:02:31;;;;;;;24.23;4.15;;;;;;;-146.27;88.51;43304.03;5068269;28;20031;-72
2024/02/20 02:04:57;;;;;;;23.10;3.50;;;;;;;-146.27;88.40;43300.06;5070046;28;20396;-72
2024/02/20 02:07:22;;;;;;;19.80;3.53;;;;;;;-146.27;87.94;43296.06;5068836;28;20480;-72
2024/02/20 02:09:47;;;;;;;36.08;5.13;;;;;;;-146.27;87.70;43304.03;5070412;28;20033;-74
2024/02/20 02:12:13;;;;;;;19.63;3.45;;;;;;;-146.27;87.70;43333.88;5068910;28;20016;-73
2024/02/20 02:14:45;;;;;;;23.05;3.00;;;;;;;-146.27;88.39;43377.63;5068904;28;20067;-72
2024/02/20 02:17:14;;;;;;;21.67;3.35;;;;;;;-146.27;87.62;43331.88;5068948;28;20027;-73
2024/02/20 02:19:40;;;;;;;20.70;3.13;;;;;;;-146.27;87.05;43341.81;5067437;28;20032;-73
2024/02/20 02:22:06;;;;;;;33.20;4.50;;;;;;;-146.27;87.13;43331.88;5069974;28;20100;-73
2024/02/20 02:24:36;;;;;;;15.32;2.85;;;;;;;-146.27;87.32;43335.84;5068025;28;20667;-73
2024/02/20 02:27:02;;;;;;;26.73;3.83;;;;;;;-146.27;86.97;43341.81;5069821;28;20052;-73
2024/02/20 02:29:28;;;;;;;26.23;3.58;;;;;;;-146.27;87.10;43347.78;5064993;28;20067;-74
2024/02/20 02:31:53;;;;;;;29.17;3.97;;;;;;;-146.27;87.32;43369.66;5050287;28;20116;-73
2024/02/20 02:34:19;;;;;;;27.08;3.55;;;;;;;-146.27;87.43;43343.81;5068855;28;20107;-73
2024/02/20 02:36:44;;;;;;;28.83;3.90;;;;;;;-146.27;87.44;43383.59;5067237;28;20035;-73
2024/02/20 02:39:10;;;;;;;29.20;3.55;;;;;;;-146.27;87.61;43367.69;5079751;28;20036;-73
2024/02/20 02:41:36;;;;;;;17.90;3.28;;;;;;;-146.27;87.29;43343.81;5067697;28;20027;-73
2024/02/20 02:44:02;;;;;;;21.58;3.63;;;;;;;-146.27;87.41;43385.59;5069937;28;20443;-74
2024/02/20 02:46:28;;;;;;;24.63;3.58;;;;;;;-146.27;87.56;43375.63;5064966;28;20016;-74
2024/02/20 02:48:54;;;;;;;21.77;3.53;;;;;;;-146.27;88.02;43389.56;5069646;28;20024;-73
2024/02/20 02:51:20;;;;;;;13.23;2.65;;;;;;;-146.27;87.74;43367.69;5067460;28;20559;-73
2024/02/20 02:53:45;;;;;;;19.00;3.58;;;;;;;-146.27;87.76;43363.69;5067388;28;20031;-73
2024/02/20 02:56:11;;;;;;;22.98;3.30;;;;;;;-146.27;87.80;43401.50;5069595;28;20390;-73
2024/02/20 02:58:37;;;;;;;27.10;3.95;;;;;;;-146.27;87.88;43383.59;5068720;28;20048;-74
2024/02/20 03:01:04;;;;;;;28.63;4.22;;;;;;;-146.27;87.74;43335.84;5068626;28;20017;-74
2024/02/20 03:03:29;;;;;;;23.00;4.10;;;;;;;-146.27;87.53;43351.75;5068775;28;20028;-73
2024/02/20 03:05:55;;;;;;;22.98;3.35;;;;;;;-146.27;87.84;43379.63;5053875;28;20380;-74
2024/02/20 03:08:20;;;;;;;28.75;3.63;;;;;;;-146.27;88.02;43355.75;5067995;28;20186;-73
2024/02/20 03:10:45;;;;;;;26.20;3.67;;;;;;;-146.27;88.38;43367.69;5069253;28;20021;-73
2024/02/20 03:13:11;;;;;;;33.67;5.85;;;;;;;-146.27;88.25;43375.63;5069516;28;20552;-73
2024/02/20 03:15:36;;;;;;;25.60;2.78;;;;;;;-146.27;88.97;43387.56;5071945;28;20028;-73
2024/02/20 03:18:02;;;;;;;22.15;3.85;;;;;;;-146.27;88.59;43331.88;5073508;28;20028;-74
2024/02/20 03:20:27;;;;;;;21.95;3.38;;;;;;;-146.27;88.67;43343.81;5072997;28;20493;-73
2024/02/20 03:22:53;;;;;;;36.25;3.50;;;;;;;-146.27;88.57;43355.75;5075177;28;20111;-74
2024/02/20 03:25:19;;;;;;;26.60;4.18;;;;;;;-146.27;88.76;43343.81;5073954;28;20084;-73
2024/02/20 03:27:44;;;;;;;24.50;3.58;;;;;;;-146.27;88.86;43351.75;5065554;28;20024;-73
2024/02/20 03:30:10;;;;;;;26.05;3.45;;;;;;;-146.27;88.55;43317.94;5070252;28;20100;-72
2024/02/20 03:32:35;;;;;;;15.15;3.00;;;;;;;-146.27;89.21;43327.91;5071594;28;20029;-73
2024/02/20 03:35:02;;;;;;;18.48;3.05;;;;;;;-146.27;89.37;43327.91;5071391;28;20036;-73
2024/02/20 03:37:28;;;;;;;27.42;3.63;;;;;;;-146.27;89.19;43327.91;5072863;28;20051;-73
2024/02/20 03:39:53;;;;;;;28.92;2.90;;;;;;;-146.27;89.69;43359.72;5077198;28;20028;-73
2024/02/20 03:42:18;;;;;;;21.95;3.10;;;;;;;-146.27;89.00;43300.06;5073446;28;20024;-73
2024/02/20 03:44:45;;;;;;;21.85;3.42;;;;;;;-146.27;89.39;43351.75;5055176;28;20036;-73
2024/02/20 03:47:10;;;;;;;20.02;3.90;;;;;;;-146.27;89.89;43333.88;5071918;28;20028;-73
2024/02/20 03:49:35;;;;;;;29.45;3.78;;;;;;;-146.27;89.24;43351.75;5072938;28;20524;-73
2024/02/20 03:52:01;;;;;;;29.27;3.80;;;;;;;-146.27;89.52;43315.97;5071935;28;20485;-73
2024/02/20 03:54:26;;;;;;;28.45;3.17;;;;;;;-146.27;89.53;43331.88;5073332;28;20021;-73
2024/02/20 03:56:52;;;;;;;25.02;3.00;;;;;;;-146.27;88.99;43304.03;5072128;28;20020;-72
2024/02/20 03:59:17;;;;;;;27.50;4.32;;;;;;;-146.27;88.84;43302.03;5070961;28;20017;-73
2024/02/20 04:01:42;;;;;;;26.05;3.95;;;;;;;-146.27;88.85;43323.91;5069981;28;20027;-74
2024/02/20 04:04:09;;;;;;;28.73;4.18;;;;;;;-146.27;88.89;43308.00;5071437;28;20029;-74
2024/02/20 04:06:34;;;;;;;24.38;3.45;;;;;;;-146.27;89.20;43327.91;5073140;28;20037;-73
2024/02/20 04:09:03;;;;;;;14.23;3.10;;;;;;;-146.27;89.25;43345.81;5072446;28;20024;-74
2024/02/20 04:11:30;;;;;;;33.58;3.35;;;;;;;-146.27;88.48;43304.03;5066940;28;20028;-74
2024/02/20 04:13:55;;;;;;;28.08;4.43;;;;;;;-146.27;88.57;43355.75;5070565;28;20028;-72
2024/02/20 04:16:21;;;;;;;26.40;3.88;;;;;;;-146.27;89.32;43383.59;5069920;28;20043;-73
2024/02/20 04:18:46;;;;;;;33.08;3.95;;;;;;;-146.27;88.90;43323.91;5069731;28;20025;-73
2024/02/20 04:21:12;;;;;;;25.30;3.35;;;;;;;-146.27;88.46;43325.91;5070904;28;20065;-73
2024/02/20 04:23:37;;;;;;;18.10;3.63;;;;;;;-146.27;88.08;43317.94;5070783;28;20043;-73
2024/02/20 04:26:02;;;;;;;27.83;3.50;;;;;;;-146.27;87.99;43296.06;5071508;28;20058;-74
2024/02/20 04:28:32;;;;;;;36.92;3.78;;;;;;;-146.27;88.17;43333.88;5071738;28;20028;-72
2024/02/20 04:30:58;;;;;;;23.73;3.90;;;;;;;-146.27;87.70;43325.91;5069817;28;20033;-72
2024/02/20 04:33:23;;;;;;;39.03;4.82;;;;;;;-146.27;88.38;43335.84;5068533;28;20090;-72
2024/02/20 04:35:49;;;;;;;23.58;3.75;;;;;;;-146.27;88.12;43317.94;5071040;28;20511;-72
2024/02/20 04:38:14;;;;;;;26.20;3.92;;;;;;;-146.27;87.94;43323.91;5071800;28;20475;-71
2024/02/20 04:40:40;;;;;;;34.33;3.95;;;;;;;-146.27;87.79;43365.69;5069741;28;20111;-72
2024/02/20 04:43:06;;;;;;;32.85;3.42;;;;;;;-146.27;88.05;43367.69;5069139;28;20027;-72
2024/02/20 04:45:31;;;;;;;24.35;4.65;;;;;;;-146.27;88.59;43407.47;5071913;28;20029;-72
2024/02/20 04:47:56;;;;;;;20.13;3.55;;;;;;;-146.27;88.90;43405.47;5069940;28;20044;-71
2024/02/20 04:50:22;;;;;;;29.92;3.45;;;;;;;-146.27;89.00;43377.63;5070109;28;20073;-72
2024/02/20 04:52:47;;;;;;;18.77;3.10;;;;;;;-146.27;88.58;43337.84;5071121;28;20020;-73
2024/02/20 04:55:13;;;;;;;37.72;4.70;;;;;;;-146.27;88.82;43397.53;5069273;28;20028;-72
2024/02/20 04:57:38;;;;;;;34.47;4.07;;;;;;;-146.27;88.73;43387.56;5069897;28;20028;-71
2024/02/20 05:00:11;;;;;;;25.65;4.28;;;;;;;-146.27;88.65;43389.56;5070308;28;20029;-73
2024/02/20 05:02:40;;;;;;;26.08;3.60;;;;;;;-146.27;88.19;43345.81;5050749;28;20048;-73
2024/02/20 05:05:06;;;;;;;22.67;3.75;;;;;;;-146.27;88.00;43391.56;5058942;28;20558;-73
2024/02/20 05:07:32;;;;;;;25.00;3.70;;;;;;;-146.27;88.38;43435.31;5061409;28;20036;-73
2024/02/20 05:09:58;;;;;;;23.02;4.43;;;;;;;-146.27;88.70;43435.31;5070609;28;20352;-73
2024/02/20 05:12:23;;;;;;;31.92;4.00;;;;;;;-146.27;88.53;43385.59;5069861;28;20031;-73
2024/02/20 05:14:48;;;;;;;35.38;4.10;;;;;;;-146.27;88.12;43387.56;5068419;28;20028;-73
2024/02/20 05:17:14;;;;;;;23.55;4.07;;;;;;;-146.27;88.27;43413.44;5070330;28;20076;-74
2024/02/20 05:19:40;;;;;;;22.33;3.30;;;;;;;-146.27;88.40;43413.44;5065235;28;20029;-74
2024/02/20 05:22:06;;;;;;;26.73;3.30;;;;;;;-146.27;88.43;43415.41;5080794;28;20073;-72
2024/02/20 05:24:34;;;;;;;27.73;3.50;;;;;;;-146.27;88.46;43403.50;5071110;28;20028;-74
2024/02/20 05:27:02;;;;;;;25.48;3.40;;;;;;;-146.27;88.61;43435.31;5068906;28;20053;-73
2024/02/20 05:29:29;;;;;;;26.65;4.00;;;;;;;-146.27;88.94;43453.22;5067836;28;20033;-74
2024/02/20 05:31:57;;;;;;;22.05;3.47;;;;;;;-146.27;88.86;43455.22;5061363;28;20060;-74
2024/02/20 05:34:22;;;;;;;31.73;4.60;;;;;;;-146.27;89.02;43421.38;5066100;28;20031;-74
2024/02/20 05:36:48;;;;;;;28.08;4.60;;;;;;;-146.27;89.02;43427.34;5075477;28;20111;-73
2024/02/20 05:39:13;;;;;;;27.30;4.88;;;;;;;-146.27;89.04;43451.22;5069705;28;20062;-73
2024/02/20 05:41:39;;;;;;;28.05;3.63;;;;;;;-146.27;89.11;43473.09;5068154;28;20043;-72
2024/02/20 05:44:04;;;;;;;24.30;3.10;;;;;;;-146.27;89.40;43443.28;5062265;28;20056;-71
2024/02/20 05:46:32;;;;;;;24.25;3.55;;;;;;;-146.27;89.54;43451.22;5077513;28;20028;-72
2024/02/20 05:48:57;;;;;;;38.63;4.43;;;;;;;-146.27;89.34;43475.09;5069013;28;20039;-71
2024/02/20 05:51:23;;;;;;;19.63;3.45;;;;;;;-146.27;89.67;43471.13;5068092;28;20040;-72
2024/02/20 05:53:52;;;;;;;28.55;4.03;;;;;;;-146.27;89.52;43487.03;5069847;28;20103;-72
2024/02/20 05:56:19;;;;;;;32.70;4.38;;;;;;;-146.27;89.72;43506.94;5066687;28;20134;-72
2024/02/20 05:58:45;;;;;;;34.53;4.30;;;;;;;-146.27;89.78;43479.06;5062898;28;20037;-72
2024/02/20 06:01:11;;;;;;;17.05;3.92;;;;;;;-146.27;89.99;43483.06;5068740;28;20055;-72
2024/02/20 06:03:40;;;;;;;28.95;4.25;;;;;;;-146.27;89.98;43487.03;5062839;28;20016;-72
2024/02/20 06:06:07;;;;;;;28.10;4.00;;;;;;;-146.27;90.15;43467.13;5064169;28;20158;-72
2024/02/20 06:08:33;;;;;;;21.40;3.58;;;;;;;-146.27;90.23;43481.06;5069777;28;20020;-72
2024/02/20 06:10:59;;;;;;;28.15;4.38;;;;;;;-146.27;90.36;43457.19;5067378;28;20036;-72
2024/02/20 06:13:24;;;;;;;26.33;4.80;;;;;;;-146.27;90.63;43471.13;5066855;28;20361;-72
2024/02/20 06:15:50;;;;;;;21.90;4.43;;;;;;;-146.27;90.75;43463.16;5066635;28;20037;-72
2024/02/20 06:18:16;;;;;;;27.92;4.20;;;;;;;-146.27;90.32;43433.31;5069219;28;20065;-72
2024/02/20 06:20:45;;;;;;;26.42;3.75;;;;;;;-146.27;89.93;43451.22;5068746;28;20031;-73
2024/02/20 06:23:10;;;;;;;31.58;3.92;;;;;;;-146.27;89.83;43463.16;5067532;28;20020;-71
2024/02/20 06:25:36;;;;;;;23.00;3.92;;;;;;;-146.27;89.80;43419.41;5069183;28;20445;-72
2024/02/20 06:28:02;;;;;;;18.67;3.85;;;;;;;-146.27;89.80;43431.34;5054213;28;20037;-73
2024/02/20 06:30:27;;;;;;;35.58;5.10;;;;;;;-146.27;89.98;43427.34;5070006;28;20024;-72
2024/02/20 06:32:53;;;;;;;19.27;3.22;;;;;;;-146.27;89.75;43439.28;5066525;28;20123;-72
2024/02/20 06:35:18;;;;;;;24.23;4.15;;;;;;;-146.27;89.85;43439.28;5061158;28;20048;-72
2024/02/20 06:37:44;;;;;;;26.08;4.03;;;;;;;-146.27;90.06;43508.91;5061508;28;20036;-72
2024/02/20 06:40:09;;;;;;;24.92;4.25;;;;;;;-146.27;90.23;43479.06;5069374;28;20039;-72
2024/02/20 06:42:35;;;;;;;21.00;4.10;;;;;;;-146.27;90.08;43487.03;5062048;28;20042;-71
2024/02/20 06:45:00;;;;;;;25.08;4.00;;;;;;;-146.27;90.01;43489.03;5065644;28;20048;-72
2024/02/20 06:47:25;;;;;;;26.92;3.88;;;;;;;-146.27;90.45;43491.00;5063497;28;20033;-71
2024/02/20 06:49:51;;;;;;;19.85;3.45;;;;;;;-146.27;90.32;43506.94;5065907;28;20146;-72
2024/02/20 06:52:16;;;;;;;26.70;4.47;;;;;;;-146.27;90.23;43514.88;5068675;28;20028;-73
2024/02/20 06:54:42;;;;;;;27.30;4.38;;;;;;;-146.27;90.47;43500.97;5068667;28;20036;-70
2024/02/20 06:57:07;;;;;;;35.03;5.88;;;;;;;-146.27;90.94;43514.88;5069769;28;20428;-72
2024/02/20 06:59:32;;;;;;;25.30;4.55;;;;;;;-146.27;90.80;43550.69;5065939;28;20032;-72
2024/02/20 07:01:58;;;;;;;30.88;5.13;;;;;;;-146.27;90.72;43528.81;5067413;28;20469;-72
2024/02/20 07:04:23;;;;;;;22.15;4.22;;;;;;;-146.27;90.42;43522.84;5068437;28;20530;-73
2024/02/20 07:06:49;;;;;;;33.47;5.07;;;;;;;-146.27;90.75;43562.63;5071192;28;20566;-73
2024/02/20 07:09:14;;;;;;;45.60;5.45;;;;;;;-146.27;90.58;43524.84;5068639;28;20025;-72
2024/02/20 07:11:46;;;;;;;24.27;5.32;;;;;;;-146.27;90.83;43536.75;5070121;28;20116;-71
2024/02/20 07:14:11;;;;;;;36.97;5.60;;;;;;;-146.27;90.87;43554.66;5068511;28;20115;-73
2024/02/20 07:16:37;;;;;;;28.20;6.13;;;;;;;-146.27;90.96;43588.50;5068849;28;20108;-73
2024/02/20 07:19:03;;;;;;;32.10;5.53;;;;;;;-146.27;90.98;43618.31;5069498;28;20082;-73
2024/02/20 07:21:28;;;;;;;44.60;5.82;;;;;;;-146.27;91.58;43622.31;5068424;28;20396;-73
2024/02/20 07:23:53;;;;;;;28.90;5.70;;;;;;;-146.27;91.20;43618.31;5070764;28;20676;-72
2024/02/20 07:26:19;;;;;;;31.50;6.05;;;;;;;-146.27;91.07;43628.28;5072116;28;20070;-73
2024/02/20 07:28:44;;;;;;;25.95;4.90;;;;;;;-146.27;91.32;43672.03;5071880;28;20027;-72
2024/02/20 07:31:09;;;;;;;26.55;4.72;;;;;;;-146.27;91.47;43691.94;5074143;28;20017;-73
2024/02/20 07:33:35;;;;;;;29.48;5.65;;;;;;;-146.27;91.71;43733.72;5070900;28;20437;-71
2024/02/20 07:36:01;;;;;;;34.90;5.68;;;;;;;-146.27;91.83;43733.72;5073402;28;20032;-72
2024/02/20 07:38:26;;;;;;;26.13;5.03;;;;;;;-146.27;91.68;43751.63;5077233;28;20465;-72
2024/02/20 07:40:51;;;;;;;32.95;5.30;;;;;;;-146.27;91.73;43717.78;5078384;28;20036;-72
2024/02/20 07:43:17;;;;;;;30.67;5.05;;;;;;;-146.27;91.69;43761.56;5074851;28;20464;-72
2024/02/20 07:45:42;;;;;;;39.88;6.78;;;;;;;-146.27;91.17;43755.59;5071710;28;20074;-71
2024/02/20 07:48:11;;;;;;;30.83;5.13;;;;;;;-146.27;91.04;43731.72;5066729;28;20027;-72
2024/02/20 07:50:37;;;;;;;27.25;6.03;;;;;;;-146.27;91.46;43771.50;5067174;28;20032;-73
2024/02/20 07:53:03;;;;;;;25.98;5.60;;;;;;;-146.27;91.71;43805.31;5067550;28;20025;-72
2024/02/20 07:55:28;;;;;;;29.67;5.30;;;;;;;-146.27;92.47;43765.53;5068425;28;20024;-72
2024/02/20 07:57:53;;;;;;;32.08;6.63;;;;;;;-146.27;92.25;43785.44;5069010;28;20046;-72
2024/02/20 08:00:19;;;;;;;30.05;7.45;;;;;;;-146.27;91.91;43745.66;5070045;28;20047;-71
2024/02/20 08:02:45;;;;;;;28.60;5.75;;;;;;;-146.27;91.66;43749.63;5072442;28;20056;-72
2024/02/20 08:05:11;;;;;;;31.23;4.88;;;;;;;-146.27;91.66;43713.81;5071917;28;20463;-72
2024/02/20 08:07:37;;;;;;;26.98;4.75;;;;;;;-146.27;90.58;43644.19;5072906;28;20028;-73
2024/02/20 08:10:04;;;;;;;34.83;5.60;;;;;;;-146.27;90.96;43719.78;5072785;28;20484;-71
2024/02/20 08:12:29;;;;;;;33.63;5.60;;;;;;;-146.27;90.73;43707.84;5072831;28;20481;-72
2024/02/20 08:14:56;;;;;;;23.73;4.47;;;;;;;-146.27;90.26;43666.06;5070485;28;20063;-73
2024/02/20 08:17:22;;;;;;;28.33;4.82;;;;;;;-146.27;89.83;43636.22;5071548;28;20020;-73
2024/02/20 08:19:47;;;;;;;23.85;6.03;;;;;;;-146.27;89.78;43682.00;5072504;28;20027;-73
2024/02/20 08:22:13;;;;;;;22.42;4.72;;;;;;;-146.27;90.40;43727.75;5073102;28;20028;-72
2024/02/20 08:24:38;;;;;;;31.92;5.45;;;;;;;-146.27;89.99;43709.84;5072891;28;20107;-72
2024/02/20 08:27:03;;;;;;;29.33;5.10;;;;;;;-146.27;89.49;43691.94;5072096;28;20443;-72
2024/02/20 08:29:29;;;;;;;25.30;3.92;;;;;;;-146.27;89.36;43727.75;5071773;28;20055;-72
2024/02/20 08:31:57;;;;;;;23.25;4.18;;;;;;;-146.27;88.84;43703.88;5071595;28;20064;-72
2024/02/20 08:34:26;;;;;;;27.85;4.43;;;;;;;-146.27;88.35;43687.97;5072633;28;20062;-72
2024/02/20 08:36:51;;;;;;;30.17;5.10;;;;;;;-146.27;88.52;43761.56;5072695;28;20027;-72
2024/02/20 08:39:17;;;;;;;21.80;3.63;;;;;;;-146.27;88.00;43685.97;5072052;28;20476;-71
2024/02/20 08:41:42;;;;;;;22.33;3.75;;;;;;;-146.27;88.51;43747.63;5067884;28;20719;-74
2024/02/20 08:44:08;;;;;;;25.33;3.85;;;;;;;-146.27;88.28;43765.53;5070587;28;20131;-71
2024/02/20 08:46:34;;;;;;;28.65;4.30;;;;;;;-146.27;88.29;43781.47;5069894;28;20022;-73
2024/02/20 08:48:59;;;;;;;32.10;4.43;;;;;;;-146.27;88.49;43711.81;5069433;28;20025;-73
2024/02/20 08:51:25;;;;;;;22.52;3.70;;;;;;;-146.27;89.46;43809.31;5071503;28;20068;-73
2024/02/20 08:53:50;;;;;;;24.60;4.28;;;;;;;-146.27;89.29;43785.44;5071524;28;20036;-73
2024/02/20 08:56:16;;;;;;;30.20;4.20;;;;;;;-146.27;88.46;43721.78;5067013;28;20025;-72
2024/02/20 08:58:41;;;;;;;35.20;4.25;;;;;;;-146.27;89.52;43825.22;5076366;28;20028;-73
2024/02/20 09:01:07;;;;;;;24.50;4.40;;;;;;;-146.27;89.00;43723.75;5071713;28;20510;-73
2024/02/20 09:03:32;;;;;;;26.52;3.80;;;;;;;-146.27;88.85;43727.75;5074757;28;20452;-74
2024/02/20 09:05:58;;;;;;;27.88;4.28;;;;;;;-146.27;88.64;43670.06;5075326;28;20473;-74
2024/02/20 09:08:23;;;;;;;18.00;4.25;;;;;;;-146.27;88.36;43654.13;5069979;28;20636;-75
2024/02/20 09:10:48;;;;;;;19.00;4.13;;;;;;;-146.27;88.51;43697.91;5066005;28;20031;-75
2024/02/20 09:13:14;;;;;;;22.48;3.53;;;;;;;-146.27;89.56;43703.88;5068069;28;20559;-74
2024/02/20 09:15:39;;;;;;;25.88;4.38;;;;;;;-146.27;89.29;43668.06;5070828;28;20025;-75
2024/02/20 09:18:05;;;;;;;31.73;4.38;;;;;;;-146.27;88.86;43662.09;5067507;28;20067;-74
2024/02/20 09:20:30;;;;;;;23.75;5.03;;;;;;;-146.27;88.94;43626.28;5069920;28;20048;-75
2024/02/20 09:22:56;;;;;;;19.98;3.65;;;;;;;-146.27;88.65;43652.16;5066397;28;20559;-75
2024/02/20 09:25:22;;;;;;;24.63;4.07;;;;;;;-146.27;89.03;43658.13;5069501;28;20052;-74
2024/02/20 09:27:47;;;;;;;29.38;4.13;;;;;;;-146.27;88.53;43598.44;5070414;28;20388;-75
2024/02/20 09:30:13;;;;;;;18.10;3.45;;;;;;;-146.27;88.36;43658.13;5064497;28;20050;-75
2024/02/20 09:32:43;;;;;;;30.35;4.40;;;;;;;-146.27;88.91;43697.91;5067531;28;20055;-73
2024/02/20 09:35:08;;;;;;;27.73;3.72;;;;;;;-146.27;89.00;43680.00;5070724;28;20032;-73
2024/02/20 09:37:34;;;;;;;21.63;3.65;;;;;;;-146.27;87.97;43564.63;5069482;28;20090;-73
2024/02/20 09:39:59;;;;;;;22.35;4.72;;;;;;;-146.27;87.85;43588.50;5070701;28;20484;-73
2024/02/20 09:42:25;;;;;;;20.17;3.55;;;;;;;-146.27;87.87;43624.28;5071279;28;20020;-73
2024/02/20 09:44:54;;;;;;;26.58;4.38;;;;;;;-146.27;87.83;43634.25;5069789;28;20032;-74
2024/02/20 09:47:22;;;;;;;24.17;4.43;;;;;;;-146.27;87.62;43628.28;5071523;28;20542;-73
2024/02/20 09:49:53;;;;;;;19.55;4.32;;;;;;;-146.27;87.05;43584.50;5071230;28;20059;-73
2024/02/20 09:52:19;;;;;;;23.55;3.72;;;;;;;-146.27;87.24;43604.41;5071408;28;20028;-73
2024/02/20 09:54:46;;;;;;;22.63;3.92;;;;;;;-146.27;86.34;43574.56;5070400;28;20515;-73
2024/02/20 09:57:15;;;;;;;23.00;4.78;;;;;;;-146.27;86.16;43514.88;5071324;28;20024;-73
2024/02/20 09:59:41;;;;;;;29.05;4.22;;;;;;;-146.27;85.68;43538.75;5071355;28;20054;-73
2024/02/20 10:02:14;;;;;;;24.80;4.30;;;;;;;-146.27;85.80;43582.53;5071059;28;20443;-73
2024/02/20 10:04:40;;;;;;;26.90;4.07;;;;;;;-146.27;84.99;43518.88;5071142;28;20056;-73
2024/02/20 10:07:05;;;;;;;21.38;3.63;;;;;;;-146.27;85.46;43560.63;5070856;28;20048;-73
2024/02/20 10:09:31;;;;;;;26.98;5.60;;;;;;;-146.27;84.97;43614.34;5070869;28;20071;-73
2024/02/20 10:11:57;;;;;;;18.77;5.60;;;;;;;-146.27;84.50;43552.69;5070825;28;20013;-73
2024/02/20 10:14:27;;;;;;;29.50;5.20;;;;;;;-146.27;84.07;43570.59;5070922;28;20029;-73
2024/02/20 10:17:03;;;;;;;20.92;4.25;;;;;;;-146.27;83.62;43534.78;5070806;28;20109;-74
2024/02/20 10:19:28;;;;;;;25.60;4.28;;;;;;;-146.27;83.69;43610.38;5070737;28;20032;-73
2024/02/20 10:21:54;;;;;;;22.38;4.65;;;;;;;-146.27;83.30;43622.31;5070234;28;20510;-73
2024/02/20 10:24:19;;;;;;;21.40;3.63;;;;;;;-146.27;82.45;43546.72;5069663;28;20097;-74
2024/02/20 10:26:46;;;;;;;21.80;4.93;;;;;;;-146.27;81.74;43542.72;5070620;28;20078;-73
2024/02/20 10:29:11;;;;;;;24.35;3.90;;;;;;;-146.27;81.28;43542.72;5070496;28;20024;-73
2024/02/20 10:31:37;;;;;;;23.42;3.85;;;;;;;-146.27;80.50;43459.19;5070466;28;20074;-73
2024/02/20 10:34:02;;;;;;;21.80;3.50;;;;;;;-146.27;78.95;43419.41;5070519;28;20358;-73
2024/02/20 10:36:28;;;;;;;20.95;3.45;;;;;;;-146.27;79.48;43602.41;5069387;28;20025;-73
2024/02/20 10:39:06;;;;;;;19.58;3.63;;;;;;;-146.27;78.44;43530.81;5069510;28;20473;-73
2024/02/20 10:41:32;;;;;;;31.15;4.47;;;;;;;-146.27;78.59;43560.63;5069286;28;20036;-72
2024/02/20 10:43:58;;;;;;;26.02;4.57;;;;;;;-146.27;78.08;43650.16;5070429;28;20396;-74
2024/02/20 10:46:26;;;;;;;23.67;4.90;;;;;;;-146.27;77.26;43626.28;5070224;28;20020;-74
2024/02/20 10:48:55;;;;;;;27.23;3.58;;;;;;;-146.27;77.72;43548.69;5070338;28;20044;-73
2024/02/20 10:51:21;;;;;;;20.25;4.32;;;;;;;-146.27;77.38;43596.44;5068043;28;20033;-73
2024/02/20 10:53:50;;;;;;;24.85;4.38;;;;;;;-146.27;77.49;43634.25;5070198;28;20028;-73
2024/02/20 10:56:16;;;;;;;19.35;3.72;;;;;;;-146.27;76.34;43594.47;5067013;28;20043;-73
2024/02/20 10:58:45;;;;;;;23.05;3.75;;;;;;;-146.27;74.93;43578.53;5068839;28;20432;-71
2024/02/20 11:01:13;;;;;;;22.45;3.33;;;;;;;-146.27;74.36;43435.31;5069656;28;20052;-73
2024/02/20 11:03:42;;;;;;;20.67;4.15;;;;;;;-146.27;72.71;43471.13;5067642;28;20508;-73